Time;durP1;ratioP1;P1;durP2;ratioP2;P2;SDS_P1;SDS_P2;PMS_P1;PMS_P2;Temp;Humidity;BMP_temperature;BMP_pressure;BME280_temperature;BME280_humidity;BME280_pressure;Samples;Min_cycle;Max_cycle;Signal;HPM_P1;HPM_P2
2023/07/08 00:01:21;;;;;;;24.20;17.35;;;;;;;19.22;100.00;99198.41;5117671;27;20038;-66
2023/07/08 00:03:47;;;;;;;24.75;17.45;;;;;;;19.21;100.00;99188.59;5117597;27;20058;-68
2023/07/08 00:06:21;;;;;;;28.85;18.02;;;;;;;19.25;100.00;99197.22;5098433;27;20481;-66
2023/07/08 00:08:46;;;;;;;22.40;18.40;;;;;;;19.22;100.00;99193.00;5117350;27;20048;-65
2023/07/08 00:11:15;;;;;;;21.65;17.77;;;;;;;19.23;100.00;99197.38;5117382;27;20039;-65
2023/07/08 00:13:40;;;;;;;22.48;17.60;;;;;;;19.25;100.00;99199.91;5117241;27;20377;-65
2023/07/08 00:16:14;;;;;;;24.90;16.95;;;;;;;19.29;100.00;99209.38;5111445;27;20038;-66
2023/07/08 00:18:39;;;;;;;23.38;16.33;;;;;;;19.27;100.00;99207.84;5094782;27;20055;-65
2023/07/08 00:21:09;;;;;;;25.02;17.73;;;;;;;19.27;100.00;99214.09;5096792;27;20047;-65
2023/07/08 00:23:36;;;;;;;24.40;17.48;;;;;;;19.25;100.00;99218.00;5109945;27;20042;-66
2023/07/08 00:26:01;;;;;;;22.15;17.52;;;;;;;19.23;100.00;99216.31;5116955;27;20046;-65
2023/07/08 00:28:27;;;;;;;25.75;16.38;;;;;;;19.23;100.00;99210.06;5117043;27;20042;-65
2023/07/08 00:30:53;;;;;;;22.85;17.10;;;;;;;19.23;100.00;99199.25;5116817;27;20039;-67
2023/07/08 00:33:19;;;;;;;22.33;17.85;;;;;;;19.25;100.00;99207.19;5117137;27;20043;-65
2023/07/08 00:35:45;;;;;;;20.90;17.05;;;;;;;19.26;100.00;99214.28;5098424;27;20385;-66
2023/07/08 00:38:21;;;;;;;22.38;17.27;;;;;;;19.27;100.00;99226.78;5098445;27;20050;-65
2023/07/08 00:40:52;;;;;;;20.65;15.07;;;;;;;19.26;100.00;99198.91;5098466;27;20047;-68
2023/07/08 00:43:19;;;;;;;22.40;15.77;;;;;;;19.23;100.00;99226.28;5098376;27;20039;-65
2023/07/08 00:45:53;;;;;;;18.73;14.82;;;;;;;19.21;100.00;99245.34;5115936;27;20047;-65
2023/07/08 00:48:23;;;;;;;20.77;15.77;;;;;;;19.19;100.00;99214.13;5098047;27;20538;-66
2023/07/08 00:50:49;;;;;;;18.13;14.32;;;;;;;19.12;100.00;99219.38;5112116;27;20051;-66
2023/07/08 00:53:29;;;;;;;17.80;14.40;;;;;;;19.09;100.00;99219.72;5098118;27;20035;-65
2023/07/08 00:56:11;;;;;;;18.77;14.18;;;;;;;19.03;100.00;99219.59;5097595;27;20428;-65
2023/07/08 00:58:48;;;;;;;16.67;13.15;;;;;;;18.99;100.00;99178.56;5112860;27;20049;-64
2023/07/08 01:01:15;;;;;;;17.83;13.48;;;;;;;18.93;99.98;99237.84;5097724;27;20050;-65
2023/07/08 01:03:49;;;;;;;20.55;14.70;;;;;;;18.95;99.92;99228.56;5097950;27;20046;-65
2023/07/08 01:06:15;;;;;;;21.02;14.20;;;;;;;18.88;100.00;99216.75;5080823;27;20485;-66
2023/07/08 01:08:40;;;;;;;20.35;15.07;;;;;;;18.83;99.46;99217.28;5116342;27;20049;-65
2023/07/08 01:11:05;;;;;;;21.10;15.43;;;;;;;18.80;99.31;99251.91;5116140;27;20054;-64
2023/07/08 01:13:37;;;;;;;21.90;15.25;;;;;;;18.78;99.07;99243.97;5097955;27;20035;-65
2023/07/08 01:16:02;;;;;;;20.77;14.57;;;;;;;18.73;98.57;99218.50;5097652;27;20058;-65
2023/07/08 01:18:28;;;;;;;17.17;13.88;;;;;;;18.70;98.27;99229.63;5110647;27;20045;-64
2023/07/08 01:20:55;;;;;;;19.85;14.80;;;;;;;18.68;97.81;99227.09;5095548;27;20039;-63
2023/07/08 01:23:21;;;;;;;18.20;14.45;;;;;;;18.65;97.21;99221.19;5077382;27;20401;-64
2023/07/08 01:25:47;;;;;;;17.83;14.27;;;;;;;18.64;96.77;99230.31;5095595;27;20043;-64
2023/07/08 01:28:15;;;;;;;18.98;13.55;;;;;;;18.65;96.53;99232.84;5059451;27;20042;-64
2023/07/08 01:30:42;;;;;;;16.88;13.07;;;;;;;18.65;96.52;99240.09;5095447;27;20792;-66
2023/07/08 01:33:22;;;;;;;18.88;14.57;;;;;;;18.69;96.08;99222.53;5077753;27;20046;-66
2023/07/08 01:35:51;;;;;;;18.63;14.00;;;;;;;18.67;96.16;99235.38;5114229;27;20055;-70
2023/07/08 01:38:22;;;;;;;17.20;14.00;;;;;;;18.71;96.30;99231.31;5114806;27;20404;-66
2023/07/08 01:40:53;;;;;;;21.98;14.82;;;;;;;18.75;96.36;99238.88;5093174;27;20034;-66
2023/07/08 01:43:19;;;;;;;18.02;15.02;;;;;;;18.78;96.59;99243.13;5115503;27;20042;-65
2023/07/08 01:45:45;;;;;;;25.67;14.68;;;;;;;18.83;96.81;99236.19;5114104;27;20057;-65
2023/07/08 01:48:16;;;;;;;21.17;14.77;;;;;;;18.89;96.82;99239.22;5115389;27;20043;-64
2023/07/08 01:50:50;;;;;;;20.95;13.85;;;;;;;18.93;97.23;99240.56;5115636;27;20038;-65
2023/07/08 01:53:22;;;;;;;22.55;15.60;;;;;;;18.96;97.40;99232.94;5096383;27;20042;-64
2023/07/08 01:55:48;;;;;;;18.90;14.70;;;;;;;18.97;97.14;99231.06;5096238;27;20038;-64
2023/07/08 01:58:13;;;;;;;22.65;15.55;;;;;;;18.98;96.99;99248.97;5096368;27;20042;-65
2023/07/08 02:00:38;;;;;;;21.05;14.10;;;;;;;18.99;97.16;99224.50;5097032;27;20042;-64
2023/07/08 02:03:04;;;;;;;16.17;13.98;;;;;;;18.99;97.17;99219.09;5096800;27;20764;-65
2023/07/08 02:05:29;;;;;;;20.75;16.02;;;;;;;18.99;96.65;99226.34;5115656;27;20039;-66
2023/07/08 02:07:56;;;;;;;18.58;15.05;;;;;;;18.98;96.63;99248.97;5114092;27;20421;-66
2023/07/08 02:10:21;;;;;;;18.23;13.85;;;;;;;18.99;96.79;99234.44;5115323;27;20047;-66
2023/07/08 02:12:46;;;;;;;21.45;15.52;;;;;;;19.00;96.46;99228.03;5113632;27;20038;-66
2023/07/08 02:15:12;;;;;;;22.13;14.93;;;;;;;19.00;96.65;99223.47;5111786;27;20045;-67
2023/07/08 02:17:37;;;;;;;18.45;14.90;;;;;;;19.03;96.54;99223.13;5115557;27;20038;-66
2023/07/08 02:20:03;;;;;;;20.52;15.55;;;;;;;19.01;96.50;99222.47;5111298;27;20405;-68
2023/07/08 02:22:29;;;;;;;18.20;14.23;;;;;;;19.02;96.48;99240.34;5096770;27;20030;-69
2023/07/08 02:24:54;;;;;;;17.67;14.88;;;;;;;19.04;96.26;99211.31;5097047;27;20492;-68
2023/07/08 02:27:20;;;;;;;21.45;15.95;;;;;;;19.06;96.46;99220.09;5115437;27;20049;-65
2023/07/08 02:29:45;;;;;;;19.77;15.00;;;;;;;19.08;96.01;99206.38;5115435;27;20053;-65
2023/07/08 02:32:10;;;;;;;18.40;14.57;;;;;;;19.08;96.40;99212.63;5115423;27;20386;-66
2023/07/08 02:34:36;;;;;;;19.85;15.00;;;;;;;19.10;96.18;99210.59;5115339;27;20047;-64
2023/07/08 02:37:02;;;;;;;20.50;14.35;;;;;;;19.09;96.06;99214.31;5115319;27;20047;-67
2023/07/08 02:39:27;;;;;;;19.23;14.25;;;;;;;19.10;95.86;99210.59;5115428;27;20038;-65
2023/07/08 02:41:54;;;;;;;21.05;14.85;;;;;;;19.14;96.15;99227.31;5119008;27;20408;-65
2023/07/08 02:44:19;;;;;;;20.15;15.57;;;;;;;19.14;96.04;99233.56;5100712;27;20054;-65
2023/07/08 02:46:44;;;;;;;21.73;15.10;;;;;;;19.15;95.96;99229.00;5100822;27;20050;-66
2023/07/08 02:49:09;;;;;;;22.10;16.60;;;;;;;19.16;95.91;99238.81;5117071;27;20501;-66
2023/07/08 02:51:34;;;;;;;20.52;15.88;;;;;;;19.18;95.67;99229.50;5118934;27;20046;-66
2023/07/08 02:54:00;;;;;;;19.77;16.05;;;;;;;19.22;95.63;99227.28;5119071;27;20050;-66
2023/07/08 02:56:26;;;;;;;21.55;15.57;;;;;;;19.26;95.10;99220.53;5118870;27;20043;-65
2023/07/08 02:58:52;;;;;;;21.40;16.02;;;;;;;19.29;95.46;99227.44;5081287;27;20046;-68
2023/07/08 03:01:17;;;;;;;21.52;15.85;;;;;;;19.30;95.39;99223.72;5119042;27;20047;-65
2023/07/08 03:03:45;;;;;;;18.55;15.32;;;;;;;19.31;94.03;99201.91;5118868;27;20059;-66
2023/07/08 03:06:10;;;;;;;21.27;16.38;;;;;;;19.36;94.22;99204.09;5119172;27;20039;-66
2023/07/08 03:08:36;;;;;;;23.50;17.00;;;;;;;19.39;93.62;99201.03;5100564;27;20489;-65
2023/07/08 03:11:06;;;;;;;21.27;16.38;;;;;;;19.41;92.95;99202.53;5100495;27;20413;-69
2023/07/08 03:13:33;;;;;;;18.52;15.13;;;;;;;19.47;91.75;99201.00;5114604;27;20511;-67
2023/07/08 03:16:00;;;;;;;23.75;16.48;;;;;;;19.52;91.36;99221.13;5086177;27;20046;-67
2023/07/08 03:18:26;;;;;;;22.02;17.50;;;;;;;19.56;91.49;99214.31;5079273;27;20047;-68
2023/07/08 03:20:57;;;;;;;22.85;16.48;;;;;;;19.62;91.11;99215.47;5091581;27;20038;-67
2023/07/08 03:23:24;;;;;;;21.08;17.05;;;;;;;19.69;90.81;99216.44;5096609;27;20039;-67
2023/07/08 03:25:51;;;;;;;26.65;16.92;;;;;;;19.71;90.09;99214.41;5094017;27;20039;-68
2023/07/08 03:28:18;;;;;;;23.73;17.42;;;;;;;19.83;90.82;99215.69;5065431;27;20051;-68
2023/07/08 03:30:45;;;;;;;18.75;14.73;;;;;;;19.88;91.37;99226.78;5099952;27;20053;-67
2023/07/08 03:33:12;;;;;;;20.60;15.18;;;;;;;19.95;91.67;99210.72;5083022;27;20049;-68
2023/07/08 03:35:40;;;;;;;22.23;15.50;;;;;;;20.00;91.72;99220.97;5098978;27;20054;-69
2023/07/08 03:38:05;;;;;;;20.98;15.70;;;;;;;20.03;91.36;99204.38;5099888;27;20047;-67
2023/07/08 03:40:31;;;;;;;22.38;16.00;;;;;;;20.06;91.44;99222.97;5099878;27;20042;-68
2023/07/08 03:42:57;;;;;;;18.30;15.80;;;;;;;20.14;91.21;99220.19;5119686;27;20034;-69
2023/07/08 03:45:23;;;;;;;22.42;16.20;;;;;;;20.25;90.95;99212.50;5101054;27;20082;-69
2023/07/08 03:47:48;;;;;;;20.13;16.15;;;;;;;20.36;90.59;99213.97;5096491;27;20054;-69
2023/07/08 03:50:23;;;;;;;23.40;15.48;;;;;;;20.52;90.12;99218.41;5079576;27;20038;-70
2023/07/08 03:52:51;;;;;;;19.77;15.02;;;;;;;20.63;89.60;99210.66;5079166;27;20058;-68
2023/07/08 03:55:17;;;;;;;21.55;15.68;;;;;;;20.74;89.45;99206.66;5097424;27;20501;-69
2023/07/08 03:57:43;;;;;;;21.35;16.77;;;;;;;20.84;89.50;99206.38;5097472;27;20413;-69
2023/07/08 04:00:11;;;;;;;22.42;16.42;;;;;;;20.90;89.04;99205.63;5096297;27;20058;-68
2023/07/08 04:02:43;;;;;;;20.90;16.10;;;;;;;20.97;88.92;99195.75;5097420;27;20051;-69
2023/07/08 04:05:15;;;;;;;20.00;15.88;;;;;;;21.04;88.42;99218.34;5097035;27;20055;-69
2023/07/08 04:07:40;;;;;;;21.77;14.30;;;;;;;21.14;87.34;99188.25;5081545;27;20051;-70
2023/07/08 04:10:06;;;;;;;20.65;15.35;;;;;;;21.27;86.75;99211.00;5082473;27;20043;-69
2023/07/08 04:12:31;;;;;;;20.88;14.73;;;;;;;21.40;86.74;99207.63;5117825;27;20050;-70
2023/07/08 04:14:57;;;;;;;20.65;15.32;;;;;;;21.49;85.76;99208.34;5097967;27;20524;-69
2023/07/08 04:17:23;;;;;;;19.67;13.25;;;;;;;21.50;85.35;99213.56;5117680;27;20046;-69
2023/07/08 04:19:48;;;;;;;17.63;14.35;;;;;;;21.48;83.81;99215.63;5099268;27;20038;-70
2023/07/08 04:22:13;;;;;;;22.60;16.60;;;;;;;21.43;83.36;99217.25;5098536;27;20524;-70
2023/07/08 04:24:39;;;;;;;18.50;15.05;;;;;;;21.36;83.60;99218.00;5117643;27;20378;-71
2023/07/08 04:27:04;;;;;;;17.52;14.27;;;;;;;21.30;83.02;99213.34;5117428;27;20046;-71
2023/07/08 04:29:30;;;;;;;19.00;15.43;;;;;;;21.23;82.34;99223.22;5117179;27;20440;-70
2023/07/08 04:31:55;;;;;;;19.70;14.18;;;;;;;21.18;82.26;99222.09;5117271;27;20064;-72
2023/07/08 04:34:20;;;;;;;23.77;14.00;;;;;;;21.13;81.39;99230.78;5098776;27;20511;-71
2023/07/08 04:36:46;;;;;;;18.50;13.63;;;;;;;21.09;81.26;99243.03;5117702;27;20436;-71
2023/07/08 04:39:13;;;;;;;18.23;13.57;;;;;;;21.04;82.06;99261.72;5116952;27;20039;-69
2023/07/08 04:41:40;;;;;;;18.50;13.48;;;;;;;20.99;82.69;99237.06;5117309;27;20503;-70
2023/07/08 04:44:12;;;;;;;18.63;14.20;;;;;;;20.97;82.56;99239.94;5098049;27;20053;-69
2023/07/08 04:46:42;;;;;;;18.48;13.38;;;;;;;20.85;82.42;99224.34;5098638;27;20034;-69
2023/07/08 04:49:11;;;;;;;23.45;14.40;;;;;;;20.78;81.81;99223.38;5115154;27;20034;-68
2023/07/08 04:51:40;;;;;;;20.33;13.70;;;;;;;20.72;81.98;99218.72;5093756;27;20497;-69
2023/07/08 04:54:05;;;;;;;22.88;14.85;;;;;;;20.65;82.83;99207.78;5098359;27;20409;-70
2023/07/08 04:56:42;;;;;;;18.65;13.15;;;;;;;20.69;82.90;99219.06;5116799;27;20042;-70
2023/07/08 04:59:09;;;;;;;22.10;13.70;;;;;;;20.57;83.06;99216.81;5097806;27;20784;-69
2023/07/08 05:01:34;;;;;;;19.20;13.52;;;;;;;20.51;83.39;99225.69;5098605;27;20871;-71
2023/07/08 05:04:00;;;;;;;18.38;13.48;;;;;;;20.45;82.90;99258.03;5116153;27;20062;-70
2023/07/08 05:06:25;;;;;;;17.70;14.45;;;;;;;20.38;83.40;99260.66;5098000;27;20085;-69
2023/07/08 05:08:50;;;;;;;20.40;15.43;;;;;;;20.36;83.71;99251.03;5076772;27;20043;-70
2023/07/08 05:11:15;;;;;;;16.13;13.80;;;;;;;20.31;83.42;99246.13;5095874;27;20775;-69
2023/07/08 05:13:41;;;;;;;20.55;14.35;;;;;;;20.27;83.68;99247.50;5095765;27;20050;-70
2023/07/08 05:16:06;;;;;;;19.05;13.05;;;;;;;20.22;83.42;99252.59;5089300;27;20046;-69
2023/07/08 05:18:31;;;;;;;19.38;13.55;;;;;;;20.21;83.80;99251.75;5116247;27;20114;-68
2023/07/08 05:20:56;;;;;;;19.60;13.32;;;;;;;20.22;83.88;99255.31;5116156;27;20053;-69
2023/07/08 05:23:22;;;;;;;16.60;12.43;;;;;;;20.23;82.83;99257.84;5116161;27;20034;-70
2023/07/08 05:25:47;;;;;;;14.77;12.20;;;;;;;20.28;83.11;99251.91;5116120;27;20049;-70
2023/07/08 05:28:12;;;;;;;18.20;13.18;;;;;;;20.34;83.60;99258.44;5097203;27;20523;-70
2023/07/08 05:30:40;;;;;;;19.02;13.52;;;;;;;20.40;83.59;99258.59;5116301;27;20054;-69
2023/07/08 05:33:05;;;;;;;15.90;11.85;;;;;;;20.53;83.52;99220.94;5096926;27;20049;-70
2023/07/08 05:35:30;;;;;;;18.52;12.90;;;;;;;20.69;83.56;99262.41;5097397;27;20253;-71
2023/07/08 05:37:56;;;;;;;16.48;12.20;;;;;;;20.87;82.98;99242.09;5097842;27;20602;-70
2023/07/08 05:40:21;;;;;;;14.52;12.15;;;;;;;21.06;82.06;99240.69;5116008;27;20053;-69
2023/07/08 05:42:46;;;;;;;16.23;12.43;;;;;;;21.22;81.56;99242.44;5116017;27;20428;-71
2023/07/08 05:45:12;;;;;;;17.13;11.20;;;;;;;21.33;81.03;99250.91;5115895;27;20444;-72
2023/07/08 05:47:38;;;;;;;16.67;11.20;;;;;;;21.42;80.12;99262.50;5096830;27;20047;-70
2023/07/08 05:50:03;;;;;;;15.73;11.80;;;;;;;21.51;79.56;99257.81;5097389;27;20421;-69
2023/07/08 05:52:30;;;;;;;31.08;22.83;;;;;;;21.55;79.20;99240.16;5097455;27;20038;-69
2023/07/08 05:54:55;;;;;;;20.65;14.27;;;;;;;21.51;79.07;99238.84;5115629;27;20054;-69
2023/07/08 05:57:21;;;;;;;15.60;12.25;;;;;;;21.45;78.72;99221.44;5115642;27;20051;-69
2023/07/08 05:59:46;;;;;;;15.45;11.85;;;;;;;21.42;78.25;99219.13;5115686;27;20096;-70
2023/07/08 06:02:12;;;;;;;15.45;10.75;;;;;;;21.43;77.98;99217.25;5115896;27;20481;-69
2023/07/08 06:04:39;;;;;;;14.65;10.68;;;;;;;21.48;77.90;99239.19;5096489;27;20058;-69
2023/07/08 06:07:04;;;;;;;13.18;10.52;;;;;;;21.57;77.68;99219.91;5097343;27;20405;-70
2023/07/08 06:09:29;;;;;;;19.52;12.23;;;;;;;21.70;77.46;99219.22;5115598;27;20404;-69
2023/07/08 06:11:54;;;;;;;17.50;12.32;;;;;;;21.89;76.83;99218.63;5115540;27;20388;-69
2023/07/08 06:14:20;;;;;;;17.20;12.57;;;;;;;22.02;76.35;99204.38;5115480;27;20050;-69
2023/07/08 06:16:45;;;;;;;17.92;11.52;;;;;;;22.08;75.44;99211.75;5096998;27;20592;-70
2023/07/08 06:19:11;;;;;;;16.38;10.93;;;;;;;22.11;75.38;99229.53;5109590;27;20058;-70
2023/07/08 06:21:36;;;;;;;13.07;10.55;;;;;;;22.03;75.04;99220.47;5080361;27;20054;-69
2023/07/08 06:24:01;;;;;;;14.07;12.48;;;;;;;21.95;75.05;99217.84;5099101;27;20039;-69
2023/07/08 06:26:26;;;;;;;16.20;9.95;;;;;;;21.87;74.71;99225.28;5103039;27;20035;-68
2023/07/08 06:28:51;;;;;;;13.48;9.65;;;;;;;21.76;74.71;99217.66;5119475;27;20050;-68
2023/07/08 06:31:17;;;;;;;14.20;10.38;;;;;;;21.66;74.93;99207.09;5119390;27;20038;-70
2023/07/08 06:33:42;;;;;;;14.90;11.13;;;;;;;21.59;75.29;99204.28;5101006;27;20382;-69
2023/07/08 06:36:08;;;;;;;13.38;9.27;;;;;;;21.58;75.63;99196.34;5119475;27;20038;-69
2023/07/08 06:38:33;;;;;;;18.67;13.80;;;;;;;21.58;75.83;99199.06;5100776;27;20047;-70
2023/07/08 06:40:58;;;;;;;22.35;11.95;;;;;;;21.58;75.73;99204.47;5119699;27;20591;-69
2023/07/08 06:43:24;;;;;;;18.67;14.13;;;;;;;21.57;75.48;99195.50;5101171;27;20045;-71
2023/07/08 06:45:54;;;;;;;15.80;11.15;;;;;;;21.57;75.66;99197.38;5100806;27;20035;-70
2023/07/08 06:48:20;;;;;;;17.40;10.45;;;;;;;21.57;75.61;99192.78;5119516;27;20042;-71
2023/07/08 06:50:48;;;;;;;17.08;11.60;;;;;;;21.59;75.59;99192.59;5119459;27;20043;-70
2023/07/08 06:53:15;;;;;;;17.27;10.63;;;;;;;21.54;75.57;99205.91;5119396;27;20050;-70
2023/07/08 06:55:40;;;;;;;14.75;11.57;;;;;;;21.49;75.07;99197.50;5119412;27;20045;-70
2023/07/08 06:58:05;;;;;;;16.45;11.18;;;;;;;21.44;75.30;99197.25;5083333;27;20404;-69
2023/07/08 07:00:30;;;;;;;13.68;10.68;;;;;;;21.38;75.47;99220.50;5119083;27;20050;-70
2023/07/08 07:02:55;;;;;;;14.13;10.70;;;;;;;21.37;75.65;99214.25;5119245;27;20493;-71
2023/07/08 07:05:21;;;;;;;12.55;10.10;;;;;;;21.34;75.88;99203.78;5118703;27;20401;-71
2023/07/08 07:07:46;;;;;;;16.27;11.02;;;;;;;21.30;75.74;99212.50;5100471;27;20408;-70
2023/07/08 07:10:11;;;;;;;17.77;11.45;;;;;;;21.25;75.57;99214.91;5099452;27;20060;-70
2023/07/08 07:12:36;;;;;;;17.88;13.35;;;;;;;21.20;76.04;99223.63;5118958;27;20408;-70
2023/07/08 07:15:03;;;;;;;16.48;12.27;;;;;;;21.13;75.84;99200.13;5118775;27;20527;-70
2023/07/08 07:17:29;;;;;;;13.30;10.23;;;;;;;21.07;75.70;99201.72;5118300;27;20043;-70
2023/07/08 07:19:55;;;;;;;14.98;10.35;;;;;;;21.06;75.70;99210.03;5099811;27;20042;-69
2023/07/08 07:22:21;;;;;;;17.52;11.43;;;;;;;21.05;75.43;99201.06;5100274;27;20046;-70
2023/07/08 07:24:48;;;;;;;16.10;10.32;;;;;;;21.10;75.23;99205.94;5118650;27;20528;-70
2023/07/08 07:27:13;;;;;;;16.10;11.70;;;;;;;21.14;75.45;99193.66;5117829;27;20042;-69
2023/07/08 07:29:44;;;;;;;14.35;10.40;;;;;;;21.18;75.26;99204.00;5082476;27;20055;-70
2023/07/08 07:32:11;;;;;;;20.17;9.95;;;;;;;21.21;74.69;99198.22;5099066;27;20065;-70
2023/07/08 07:34:37;;;;;;;17.20;10.90;;;;;;;21.33;74.83;99201.28;5099988;27;20061;-70
2023/07/08 07:37:03;;;;;;;15.93;10.05;;;;;;;21.50;74.56;99196.47;5118357;27;20050;-70
2023/07/08 07:39:28;;;;;;;16.17;10.30;;;;;;;21.64;74.18;99193.72;5118246;27;20046;-70
2023/07/08 07:41:54;;;;;;;16.40;11.23;;;;;;;21.73;73.86;99230.56;5117815;27;20046;-69
2023/07/08 07:44:19;;;;;;;22.48;10.90;;;;;;;21.82;73.63;99193.28;5099298;27;20046;-69
2023/07/08 07:46:44;;;;;;;16.58;10.63;;;;;;;21.85;73.55;99214.63;5118385;27;20047;-69
2023/07/08 07:49:09;;;;;;;14.70;10.70;;;;;;;21.85;72.93;99203.75;5099728;27;20042;-70
2023/07/08 07:51:34;;;;;;;15.52;9.90;;;;;;;21.83;72.77;99208.53;5118002;27;20412;-69
2023/07/08 07:54:00;;;;;;;12.05;9.45;;;;;;;21.82;72.59;99214.16;5117996;27;20042;-69
2023/07/08 07:56:25;;;;;;;17.30;10.07;;;;;;;21.78;72.60;99218.31;5099471;27;20047;-69
2023/07/08 07:58:50;;;;;;;16.13;9.55;;;;;;;21.70;72.83;99252.63;5099377;27;20038;-71
2023/07/08 08:01:15;;;;;;;15.80;9.55;;;;;;;21.65;72.70;99224.41;5117825;27;20413;-69
2023/07/08 08:03:41;;;;;;;14.85;9.63;;;;;;;21.59;72.76;99223.28;5117617;27;20059;-69
2023/07/08 08:06:06;;;;;;;17.50;11.10;;;;;;;21.59;72.88;99231.41;5117918;27;20053;-70
2023/07/08 08:08:31;;;;;;;13.70;10.52;;;;;;;21.57;72.91;99229.91;5117698;27;20038;-70
2023/07/08 08:10:56;;;;;;;14.23;9.68;;;;;;;21.52;72.87;99233.22;5117748;27;20050;-69
2023/07/08 08:13:22;;;;;;;13.85;10.00;;;;;;;21.53;72.89;99234.91;5117971;27;20879;-69
2023/07/08 08:15:47;;;;;;;12.85;9.77;;;;;;;21.53;73.04;99228.63;5117381;27;20046;-69
2023/07/08 08:18:13;;;;;;;16.15;10.07;;;;;;;21.52;72.44;99237.81;5117343;27;20409;-69
2023/07/08 08:20:40;;;;;;;13.68;9.02;;;;;;;21.52;72.19;99237.81;5099108;27;20046;-69
2023/07/08 08:23:06;;;;;;;13.38;10.23;;;;;;;21.51;71.61;99236.13;5099064;27;20039;-69
2023/07/08 08:25:32;;;;;;;11.90;9.63;;;;;;;21.54;71.65;99242.00;5117594;27;20050;-71
2023/07/08 08:27:57;;;;;;;16.08;9.65;;;;;;;21.53;71.78;99255.75;5098838;27;20050;-70
2023/07/08 08:30:22;;;;;;;13.07;8.90;;;;;;;21.52;71.66;99251.38;5117426;27;20051;-69
2023/07/08 08:32:48;;;;;;;15.95;10.55;;;;;;;21.55;71.73;99240.16;5117373;27;20041;-69
2023/07/08 08:35:13;;;;;;;12.07;9.48;;;;;;;21.56;71.77;99237.22;5117459;27;20504;-70
2023/07/08 08:37:38;;;;;;;13.27;9.98;;;;;;;21.58;72.28;99239.75;5097999;27;20038;-70
2023/07/08 08:40:04;;;;;;;14.93;9.98;;;;;;;21.56;72.03;99234.50;5116767;27;20512;-70
2023/07/08 08:42:34;;;;;;;14.55;10.27;;;;;;;21.58;72.25;99242.47;5097986;27;20061;-71
2023/07/08 08:45:02;;;;;;;14.75;9.88;;;;;;;21.66;72.30;99240.50;5116983;27;20046;-69
2023/07/08 08:47:36;;;;;;;15.93;9.55;;;;;;;21.85;72.01;99238.19;5117276;27;20038;-70
2023/07/08 08:50:25;;;;;;;15.13;9.73;;;;;;;22.05;71.11;99240.13;5097913;27;20057;-70
2023/07/08 08:52:54;;;;;;;14.52;9.93;;;;;;;22.26;70.27;99247.44;5116750;27;20046;-70
2023/07/08 08:55:20;;;;;;;13.23;9.77;;;;;;;22.37;70.14;99244.19;5116999;27;20055;-70
2023/07/08 08:58:16;;;;;;;12.30;9.98;;;;;;;22.48;69.63;99245.53;5116677;27;20408;-69
2023/07/08 09:01:14;;;;;;;13.77;9.80;;;;;;;22.58;69.70;99237.91;5116978;27;20048;-70
2023/07/08 09:04:00;;;;;;;13.77;9.85;;;;;;;22.78;68.61;99240.81;5032703;28;20063;-70
2023/07/08 09:06:32;;;;;;;11.70;9.73;;;;;;;22.78;67.91;99240.81;5033202;28;20048;-70
2023/07/08 09:09:03;;;;;;;16.50;10.38;;;;;;;22.84;67.66;99231.03;5033072;28;20044;-70
2023/07/08 09:11:50;;;;;;;11.00;8.68;;;;;;;23.00;66.88;99233.44;5033076;28;20075;-70
2023/07/08 09:14:34;;;;;;;15.60;9.75;;;;;;;23.16;66.69;99228.50;5033190;28;20063;-68
2023/07/08 09:17:22;;;;;;;15.23;10.60;;;;;;;23.27;65.62;99224.38;5032602;28;20087;-69
2023/07/08 09:20:11;;;;;;;15.68;9.50;;;;;;;23.15;65.20;99220.56;5033020;28;20052;-69
2023/07/08 09:22:43;;;;;;;11.90;8.88;;;;;;;23.09;65.44;99224.94;5016007;28;20045;-70
2023/07/08 09:25:20;;;;;;;20.67;9.38;;;;;;;23.05;65.56;99226.34;5033022;28;20048;-70
2023/07/08 09:27:46;;;;;;;17.48;10.27;;;;;;;22.92;65.85;99225.44;5015988;28;20427;-69
2023/07/08 09:30:17;;;;;;;12.68;9.52;;;;;;;22.94;64.61;99224.19;5032730;28;20063;-70
2023/07/08 09:32:42;;;;;;;12.98;9.55;;;;;;;22.93;64.98;99243.41;4999534;28;20423;-70
2023/07/08 09:35:16;;;;;;;13.77;9.27;;;;;;;22.90;65.22;99239.25;5030511;28;20036;-69
2023/07/08 09:37:46;;;;;;;14.40;8.77;;;;;;;22.89;65.13;99232.13;5030320;28;20043;-68
2023/07/08 09:40:23;;;;;;;12.48;9.68;;;;;;;22.87;65.16;99223.31;5098728;27;20050;-70
2023/07/08 09:42:54;;;;;;;16.05;9.13;;;;;;;22.78;65.14;99225.34;5115556;27;20042;-70
2023/07/08 09:45:23;;;;;;;13.90;9.25;;;;;;;22.75;65.20;99235.75;5092128;27;20054;-70
2023/07/08 09:47:53;;;;;;;13.20;8.82;;;;;;;22.75;65.03;99247.50;5115472;27;20031;-69
2023/07/08 09:50:29;;;;;;;11.95;9.02;;;;;;;22.85;65.05;99230.81;5115559;27;20038;-70
2023/07/08 09:52:57;;;;;;;15.77;8.73;;;;;;;23.15;63.86;99242.31;5095716;27;20401;-69
2023/07/08 09:55:23;;;;;;;11.80;8.40;;;;;;;23.61;63.78;99241.75;5115766;27;20038;-69
2023/07/08 09:57:52;;;;;;;15.38;9.15;;;;;;;24.39;61.95;99229.41;5093989;27;20039;-70
2023/07/08 10:00:26;;;;;;;11.13;8.15;;;;;;;25.15;59.78;99218.91;5115307;27;20057;-69
2023/07/08 10:02:56;;;;;;;;;;;;;;;26.08;59.76;99219.34;5096847;27;20077;-71
2023/07/08 10:05:27;;;;;;;11.02;7.40;;;;;;;26.54;57.07;99219.06;5115389;27;19942;-71
2023/07/08 10:07:55;;;;;;;13.02;8.60;;;;;;;27.23;55.37;99218.00;5096144;27;20039;-69
2023/07/08 10:10:32;;;;;;;9.70;8.07;;;;;;;28.27;51.86;99209.53;5114738;27;20042;-70
2023/07/08 10:13:40;;;;;;;11.65;7.88;;;;;;;28.85;49.67;99208.81;5115432;27;20046;-71
2023/07/08 10:16:37;;;;;;;12.52;8.05;;;;;;;28.19;51.53;99212.63;5011274;28;20140;-70
2023/07/08 10:19:16;;;;;;;9.93;8.38;;;;;;;28.07;49.94;99209.81;4914877;29;20051;-70
2023/07/08 10:22:10;;;;;;;11.57;8.25;;;;;;;28.12;51.05;99217.31;4914851;29;20057;-72
2023/07/08 10:24:54;;;;;;;12.07;7.22;;;;;;;28.43;49.34;99211.59;4906821;29;20039;-71
2023/07/08 10:27:34;;;;;;;14.20;7.72;;;;;;;28.27;49.75;99203.22;4915217;29;20051;-71
2023/07/08 10:30:27;;;;;;;10.70;7.95;;;;;;;28.12;49.67;99211.81;4914116;28;20218;-69
2023/07/08 10:33:24;;;;;;;9.48;7.18;;;;;;;27.89;50.01;99218.06;4894516;29;20422;-69
2023/07/08 10:36:21;;;;;;;8.70;6.82;;;;;;;27.53;50.94;99201.66;4914559;29;20855;-70
2023/07/08 10:39:14;;;;;;;7.93;6.32;;;;;;;27.21;51.70;99199.06;4893084;29;20054;-70
2023/07/08 10:41:51;;;;;;;8.98;6.93;;;;;;;26.80;51.55;99196.94;4904491;29;20047;-69
2023/07/08 10:44:28;;;;;;;10.80;7.20;;;;;;;26.58;52.66;99192.94;4914601;29;20415;-67
2023/07/08 10:47:54;;;;;;;7.82;6.47;;;;;;;26.71;52.96;99199.16;4914095;28;20518;-70
2023/07/08 10:50:28;;;;;;;11.23;6.90;;;;;;;26.58;52.48;99192.94;4876955;29;20052;-71
2023/07/08 10:53:02;;;;;;;6.90;6.20;;;;;;;26.62;52.56;99191.44;4916699;28;20050;-71
2023/07/08 10:55:41;;;;;;;7.45;6.10;;;;;;;26.65;52.65;99194.56;5006692;28;20432;-70
2023/07/08 10:58:41;;;;;;;10.63;7.28;;;;;;;26.55;52.74;99191.50;5024181;28;20033;-69
2023/07/08 11:01:25;;;;;;;8.05;5.88;;;;;;;26.27;52.67;99186.47;5012388;28;20176;-70
2023/07/08 11:04:24;;;;;;;8.23;6.28;;;;;;;26.15;52.68;99187.38;5015687;28;20064;-70
2023/07/08 11:06:56;;;;;;;8.93;6.68;;;;;;;26.02;52.83;99193.75;5023150;28;20049;-71
2023/07/08 11:09:32;;;;;;;8.95;6.15;;;;;;;26.12;52.13;99164.06;5035274;28;20053;-70
2023/07/08 11:12:11;;;;;;;7.13;6.28;;;;;;;26.28;52.33;99209.19;5035373;28;20059;-71
2023/07/08 11:14:54;;;;;;;10.57;6.28;;;;;;;26.51;51.36;99223.09;5035260;28;20063;-73
2023/07/08 11:17:58;;;;;;;11.25;5.55;;;;;;;26.76;51.23;99207.50;5035093;28;20053;-70
2023/07/08 11:20:36;;;;;;;7.57;5.63;;;;;;;26.92;50.91;99206.13;5046984;27;20054;-71
2023/07/08 11:23:10;;;;;;;10.52;6.25;;;;;;;26.68;49.98;99226.94;5112006;27;20043;-69
2023/07/08 11:25:37;;;;;;;9.55;7.20;;;;;;;26.51;49.20;99203.13;5116849;27;20412;-70
2023/07/08 11:28:09;;;;;;;7.70;6.05;;;;;;;26.45;49.62;99204.81;5118185;27;20038;-70
2023/07/08 11:30:39;;;;;;;12.40;6.43;;;;;;;26.27;49.77;99189.22;5099065;27;20070;-68